Time;durP1;ratioP1;P1;durP2;ratioP2;P2;SDS_P1;SDS_P2;PMS_P1;PMS_P2;Temp;Humidity;BMP_temperature;BMP_pressure;BME280_temperature;BME280_humidity;BME280_pressure;Samples;Min_cycle;Max_cycle;Signal;HPM_P1;HPM_P2
2022/04/05 00:05:43;;;;;;;23.23;10.63;;;;;;;3.78;51.34;100142.86;123521;1102;104271;-78
2022/04/05 00:15:41;;;;;;;23.13;11.10;;;;;;;3.71;52.02;100138.11;123484;1102;104462;-78
2022/04/05 00:18:26;;;;;;;22.33;11.07;;;;;;;3.67;52.17;100137.05;123510;1102;104319;-79
2022/04/05 00:20:58;;;;;;;25.17;11.97;;;;;;;3.63;52.02;100144.58;123538;1102;104428;-79
2022/04/05 00:23:29;;;;;;;26.77;14.20;;;;;;;3.54;51.79;100140.66;123298;1102;104350;-79
2022/04/05 00:26:00;;;;;;;27.47;14.70;;;;;;;3.44;52.00;100138.31;123436;1102;104392;-79
2022/04/05 00:28:32;;;;;;;31.20;17.33;;;;;;;3.33;52.86;100141.99;123298;1102;104280;-78
2022/04/05 00:31:05;;;;;;;33.37;18.40;;;;;;;3.20;52.54;100135.19;123562;1102;104232;-80
2022/04/05 00:33:37;;;;;;;35.37;18.87;;;;;;;3.08;53.03;100131.87;123445;1099;104451;-78
2022/04/05 00:36:09;;;;;;;37.27;20.03;;;;;;;2.99;52.95;100127.94;123306;1102;104428;-78
2022/04/05 00:38:46;;;;;;;37.23;19.83;;;;;;;2.90;52.74;100129.05;123339;1102;104431;-79
2022/04/05 00:41:26;;;;;;;36.57;19.20;;;;;;;2.84;53.06;100129.60;123431;1100;104424;-80
2022/04/05 00:44:03;;;;;;;34.40;18.73;;;;;;;2.77;53.13;100130.91;123458;1099;104650;-78
2022/04/05 00:46:35;;;;;;;36.33;19.13;;;;;;;2.70;52.81;100133.94;123476;1099;104256;-79
2022/04/05 00:49:08;;;;;;;37.10;19.20;;;;;;;2.63;52.92;100130.09;123284;1099;104469;-79
2022/04/05 00:51:40;;;;;;;34.87;19.50;;;;;;;2.58;53.65;100141.84;123441;1099;104677;-79
2022/04/05 00:54:14;;;;;;;41.63;20.73;;;;;;;2.51;53.33;100132.80;123328;1102;105467;-79
2022/04/05 00:56:59;;;;;;;;;;;;;;;2.46;53.40;100133.31;123408;1100;104415;-79
2022/04/05 00:59:51;;;;;;;36.43;19.23;;;;;;;2.43;53.58;100135.71;123415;1102;104476;-79
2022/04/05 01:02:32;;;;;;;38.47;20.20;;;;;;;2.41;53.33;100127.84;123807;1102;104355;-78
2022/04/05 01:05:26;;;;;;;37.53;19.35;;;;;;;2.40;53.52;100120.90;123260;1102;104408;-78
2022/04/05 01:08:06;;;;;;;36.23;19.07;;;;;;;2.40;53.82;100130.34;123092;1102;104459;-79
2022/04/05 01:10:42;;;;;;;35.93;19.40;;;;;;;2.35;53.29;100124.87;123378;1102;104428;-79
2022/04/05 01:13:15;;;;;;;36.50;20.20;;;;;;;2.32;53.71;100125.59;123411;1102;104487;-79
2022/04/05 01:15:52;;;;;;;36.07;20.47;;;;;;;2.29;53.67;100116.72;123406;1102;107902;-78
2022/04/05 01:18:26;;;;;;;39.27;20.37;;;;;;;2.28;54.11;100115.84;123535;1102;104456;-79
2022/04/05 01:21:16;;;;;;;39.63;21.13;;;;;;;2.30;53.72;100114.23;123408;1102;104427;-79
2022/04/05 01:24:07;;;;;;;37.80;21.17;;;;;;;2.31;53.42;100109.97;123453;1102;104954;-79
2022/04/05 01:26:56;;;;;;;36.50;20.07;;;;;;;2.32;54.15;100114.32;123673;1102;104380;-78
2022/04/05 01:29:36;;;;;;;36.30;20.20;;;;;;;2.33;53.99;100106.65;123444;1102;104428;-78
2022/04/05 01:32:19;;;;;;;41.83;20.03;;;;;;;2.36;54.07;100107.66;123589;1102;104261;-78
2022/04/05 01:34:56;;;;;;;36.60;20.43;;;;;;;2.37;54.28;100101.66;123459;1100;104444;-78
2022/04/05 01:37:32;;;;;;;39.47;22.03;;;;;;;2.36;53.88;100097.30;123633;1099;104428;-78
2022/04/05 01:40:35;;;;;;;37.63;20.80;;;;;;;2.36;54.13;100108.55;123626;1098;104364;-79
2022/04/05 01:43:13;;;;;;;33.77;18.53;;;;;;;2.34;54.15;100099.80;123744;1099;104386;-79
2022/04/05 01:46:02;;;;;;;34.57;19.40;;;;;;;2.33;54.10;100101.47;123709;1099;104287;-78
2022/04/05 01:48:35;;;;;;;37.43;19.67;;;;;;;2.33;54.07;100092.82;123655;1099;104328;-78
2022/04/05 01:51:34;;;;;;;38.90;20.20;;;;;;;2.30;54.52;100098.69;123735;1098;104364;-79
2022/04/05 01:54:10;;;;;;;37.27;19.37;;;;;;;2.29;54.21;100096.92;123675;1099;104306;-78
2022/04/05 01:56:46;;;;;;;;;;;;;;;2.29;54.62;100101.19;123688;1099;106984;-79
2022/04/05 01:59:46;;;;;;;35.43;18.27;;;;;;;2.27;54.22;100097.62;123858;1099;104331;-79
2022/04/05 02:02:47;;;;;;;37.97;20.00;;;;;;;2.24;54.33;100092.25;123813;1098;104320;-79
2022/04/05 02:05:39;;;;;;;37.87;20.03;;;;;;;2.23;54.79;100090.45;124179;1099;104440;-78
2022/04/05 02:08:23;;;;;;;40.25;20.20;;;;;;;2.22;54.48;100099.03;123517;1102;104431;-78
2022/04/05 02:13:58;;;;;;;37.50;21.05;;;;;;;2.10;54.83;100097.48;123671;1102;104306;-78
2022/04/05 02:16:53;;;;;;;35.50;19.80;;;;;;;2.09;54.40;100089.62;123556;1100;104376;-78
2022/04/05 02:19:29;;;;;;;37.67;20.30;;;;;;;2.08;55.12;100088.70;123531;1100;104422;-78
2022/04/05 02:22:11;;;;;;;38.30;19.87;;;;;;;2.05;54.66;100088.50;123587;1102;104454;-79
2022/04/05 02:24:48;;;;;;;36.03;19.67;;;;;;;2.02;55.07;100090.90;123398;1102;104437;-79
2022/04/05 02:27:31;;;;;;;35.70;18.93;;;;;;;1.95;54.70;100093.92;123461;1102;104749;-79
2022/04/05 02:30:18;;;;;;;36.03;19.50;;;;;;;1.90;55.07;100093.63;123545;1102;104374;-79
2022/04/05 02:36:48;;;;;;;33.23;18.63;;;;;;;1.86;54.73;100099.39;123583;1102;104405;-78
2022/04/05 02:46:11;;;;;;;35.37;17.47;;;;;;;1.86;55.40;100093.33;123753;1099;105537;-79
2022/04/05 02:48:53;;;;;;;35.93;18.20;;;;;;;1.86;55.32;100091.63;123923;1099;104342;-79
2022/04/05 02:51:41;;;;;;;34.10;17.37;;;;;;;1.86;55.04;100089.04;123910;1098;104396;-79
2022/04/05 02:54:35;;;;;;;31.83;16.77;;;;;;;1.88;55.70;100084.84;123661;1099;104345;-78
2022/04/05 02:57:18;;;;;;;30.93;16.50;;;;;;;1.88;55.85;100091.73;123779;1099;104341;-78
2022/04/05 02:59:59;;;;;;;32.45;16.50;;;;;;;1.87;55.39;100089.92;123952;1099;104425;-80
2022/04/05 03:06:07;;;;;;;30.80;16.70;;;;;;;1.83;55.23;100093.14;123842;1099;104304;-78
2022/04/05 03:08:52;;;;;;;34.00;16.97;;;;;;;1.80;55.75;100089.53;123935;1099;104351;-79
2022/04/05 03:11:38;;;;;;;36.55;17.50;;;;;;;1.76;55.38;100082.39;123620;1099;104268;-79
2022/04/05 03:14:30;;;;;;;32.50;17.53;;;;;;;1.76;55.79;100087.57;123812;1098;104287;-79
2022/04/05 03:20:17;;;;;;;32.90;16.47;;;;;;;1.63;55.61;100084.98;124052;1099;104409;-79
2022/04/05 03:23:00;;;;;;;33.07;16.87;;;;;;;1.63;56.28;100084.09;123787;1099;104306;-79
2022/04/05 03:25:35;;;;;;;39.87;16.90;;;;;;;1.62;56.10;100083.17;123824;1098;104300;-79
2022/04/05 03:28:23;;;;;;;34.07;16.77;;;;;;;1.63;56.41;100087.56;123874;1099;104341;-78
2022/04/05 03:31:02;;;;;;;36.50;17.53;;;;;;;1.60;56.53;100084.77;124012;1098;104265;-78
2022/04/05 03:40:46;;;;;;;33.77;17.47;;;;;;;1.61;56.58;100089.16;123859;1099;104297;-79
2022/04/05 03:43:18;;;;;;;36.40;17.90;;;;;;;1.62;56.23;100085.76;123951;1098;104681;-78
2022/04/05 03:45:53;;;;;;;39.03;18.97;;;;;;;1.61;56.41;100084.87;124412;1099;104264;-78
2022/04/05 03:48:26;;;;;;;44.97;19.23;;;;;;;1.61;56.16;100083.99;124239;1099;104226;-79
2022/04/05 03:50:59;;;;;;;45.60;20.43;;;;;;;1.61;56.81;100084.87;124293;1099;104242;-79
2022/04/05 03:53:31;;;;;;;39.97;20.03;;;;;;;1.65;57.08;100087.66;123950;1099;104299;-80
2022/04/05 03:56:06;;;;;;;43.23;20.43;;;;;;;1.65;57.22;100091.13;124186;1099;104326;-80
2022/04/05 03:58:39;;;;;;;46.73;22.57;;;;;;;1.68;56.44;100099.09;124524;1099;104341;-79
2022/04/05 04:01:11;;;;;;;44.90;23.07;;;;;;;1.70;56.91;100105.28;124349;1099;104352;-79
2022/04/05 04:03:44;;;;;;;45.88;22.70;;;;;;;1.77;56.98;100094.51;124039;1099;104399;-79
2022/04/05 04:06:18;;;;;;;47.57;22.47;;;;;;;1.80;57.64;100091.23;124252;1099;104348;-78
2022/04/05 04:08:50;;;;;;;44.75;21.35;;;;;;;1.80;56.76;100099.88;123862;1099;104341;-78
2022/04/05 04:11:22;;;;;;;45.00;23.63;;;;;;;1.84;57.39;100095.82;123789;1098;104366;-79
2022/04/05 04:13:55;;;;;;;46.80;22.80;;;;;;;1.88;57.24;100102.08;123795;1098;104230;-78
2022/04/05 04:16:31;;;;;;;50.23;24.00;;;;;;;1.89;57.64;100097.00;123919;1098;104300;-79
2022/04/05 04:19:03;;;;;;;53.20;23.67;;;;;;;1.94;57.09;100097.30;123945;1098;104396;-79
2022/04/05 04:21:36;;;;;;;51.23;25.33;;;;;;;1.96;57.54;100098.27;124056;1099;104306;-79
2022/04/05 04:24:09;;;;;;;53.43;26.17;;;;;;;2.01;57.76;100090.80;123861;1099;104262;-78
2022/04/05 04:26:41;;;;;;;47.70;25.43;;;;;;;2.06;57.83;100089.42;124435;1099;104236;-80
2022/04/05 04:29:14;;;;;;;53.50;25.13;;;;;;;2.12;57.62;100088.11;124148;1098;104454;-81
2022/04/05 04:31:47;;;;;;;46.37;24.60;;;;;;;2.17;57.26;100088.39;124186;1099;104274;-81
2022/04/05 04:34:18;;;;;;;48.03;24.10;;;;;;;2.24;57.85;100087.07;124087;1099;104357;-82
2022/04/05 04:36:50;;;;;;;44.13;23.03;;;;;;;2.30;58.63;100093.52;123793;1099;105620;-80
2022/04/05 04:39:22;;;;;;;43.60;21.93;;;;;;;2.38;57.35;100086.22;124323;1099;104383;-81
2022/04/05 04:41:56;;;;;;;41.35;20.65;;;;;;;2.46;57.33;100087.61;123900;1098;104331;-80
2022/04/05 04:44:28;;;;;;;41.23;19.77;;;;;;;2.54;57.84;100090.67;124517;1099;104258;-80
2022/04/05 04:47:00;;;;;;;46.20;20.53;;;;;;;2.62;57.50;100093.73;124081;1099;104236;-81
2022/04/05 04:49:32;;;;;;;41.87;21.40;;;;;;;2.70;57.31;100084.72;124564;1099;104245;-80
2022/04/05 04:52:04;;;;;;;44.43;20.87;;;;;;;2.79;56.97;100079.17;124343;1098;104300;-80
2022/04/05 04:54:35;;;;;;;37.00;18.60;;;;;;;2.85;57.94;100083.05;124064;1099;104312;-80
2022/04/05 04:57:06;;;;;;;32.75;16.85;;;;;;;2.95;57.70;100084.48;123576;1099;104226;-80
2022/04/05 04:59:38;;;;;;;35.10;17.20;;;;;;;3.04;57.72;100086.73;123889;1099;104198;-81
2022/04/05 05:02:09;;;;;;;32.20;15.80;;;;;;;3.12;58.06;100090.66;124407;1102;104303;-80
2022/04/05 05:04:41;;;;;;;34.70;16.40;;;;;;;3.20;57.57;100089.41;124120;1102;104395;-81
2022/04/05 05:07:14;;;;;;;37.70;16.10;;;;;;;3.29;57.75;100091.66;123658;1102;105239;-80
2022/04/05 05:09:45;;;;;;;29.60;16.00;;;;;;;3.37;57.75;100080.02;123980;1102;104364;-81
2022/04/05 05:12:21;;;;;;;31.50;15.60;;;;;;;3.46;57.43;100084.84;124451;1102;104749;-81
2022/04/05 05:14:55;;;;;;;30.13;16.57;;;;;;;3.53;57.76;100076.59;124402;1102;102126;-80
2022/04/05 05:17:27;;;;;;;30.65;16.00;;;;;;;3.64;56.98;100081.50;123598;1102;104475;-80
2022/04/05 05:20:12;;;;;;;32.63;16.73;;;;;;;3.72;57.68;100077.63;124079;1102;104527;-80
2022/04/05 05:22:46;;;;;;;33.67;15.47;;;;;;;3.82;57.20;100074.76;123376;1102;104258;-79
2022/04/05 05:25:21;;;;;;;27.73;15.13;;;;;;;3.92;56.91;100074.44;124275;1102;104438;-81
2022/04/05 05:27:53;;;;;;;29.70;15.10;;;;;;;4.04;57.69;100076.83;124684;1102;104175;-81
2022/04/05 05:30:25;;;;;;;28.80;13.13;;;;;;;4.14;57.45;100071.34;124655;1102;105842;-83
2022/04/05 05:32:59;;;;;;;25.97;12.53;;;;;;;4.23;57.08;100076.12;124627;1102;104374;-82
2022/04/05 05:35:39;;;;;;;25.80;13.80;;;;;;;4.29;57.21;100067.78;124462;1102;104354;-79
2022/04/05 05:38:13;;;;;;;28.07;14.03;;;;;;;4.39;56.44;100072.64;123747;1102;104459;-79
2022/04/05 05:40:46;;;;;;;26.27;13.57;;;;;;;4.42;56.97;100075.41;124125;1099;104296;-81
2022/04/05 05:43:22;;;;;;;25.87;12.77;;;;;;;4.51;56.95;100072.41;124295;1099;104432;-80
2022/04/05 05:46:22;;;;;;;29.53;14.43;;;;;;;4.58;56.46;100071.02;124047;1099;104261;-79
2022/04/05 05:49:10;;;;;;;25.70;12.83;;;;;;;4.63;56.61;100066.98;125816;1099;102142;-79
2022/04/05 05:51:47;;;;;;;25.00;13.40;;;;;;;4.71;56.40;100057.87;125415;1099;110605;-80
2022/04/05 05:54:37;;;;;;;26.67;12.57;;;;;;;4.83;56.87;100063.70;125808;1099;104434;-82
2022/04/05 05:57:35;;;;;;;26.30;12.87;;;;;;;4.95;56.94;100065.14;124804;1099;102554;-78
2022/04/05 06:00:09;;;;;;;26.35;13.05;;;;;;;5.03;56.61;100056.92;123693;1099;104225;-80
2022/04/05 06:02:55;;;;;;;22.80;12.07;;;;;;;5.10;56.61;100057.23;123667;1099;104343;-80
2022/04/05 06:08:26;;;;;;;25.17;13.00;;;;;;;5.30;56.73;100053.92;124348;1099;104520;-78
2022/04/05 06:11:00;;;;;;;22.67;12.23;;;;;;;5.38;56.53;100052.58;123897;1099;104440;-80
2022/04/05 06:17:34;;;;;;;26.33;12.73;;;;;;;5.58;55.51;100044.86;125202;1099;104421;-81
2022/04/05 06:20:19;;;;;;;26.10;13.53;;;;;;;5.69;55.83;100041.05;124066;1099;104351;-81
2022/04/05 06:23:31;;;;;;;27.90;13.43;;;;;;;5.81;55.67;100039.84;124981;1099;104214;-80
2022/04/05 06:26:09;;;;;;;26.20;13.00;;;;;;;5.91;55.09;100039.47;124190;1099;104689;-80
2022/04/05 06:28:42;;;;;;;26.57;13.93;;;;;;;5.97;55.73;100039.80;125167;1099;104428;-81
2022/04/05 06:31:21;;;;;;;26.77;13.53;;;;;;;6.05;55.76;100035.83;124376;1099;104734;-82
2022/04/05 06:33:58;;;;;;;27.07;13.47;;;;;;;6.15;55.57;100025.83;124334;1099;110935;-80
2022/04/05 06:36:32;;;;;;;28.03;13.43;;;;;;;6.24;55.12;100034.06;123890;1099;104357;-82
2022/04/05 06:39:07;;;;;;;25.50;13.03;;;;;;;6.28;55.22;100030.80;124359;1099;104638;-82
2022/04/05 06:41:59;;;;;;;27.80;13.93;;;;;;;6.31;54.09;100030.93;124267;1099;104409;-81
2022/04/05 06:44:54;;;;;;;24.97;13.03;;;;;;;6.42;54.94;100023.56;124211;1099;104421;-82
2022/04/05 06:47:37;;;;;;;24.83;12.60;;;;;;;6.61;54.36;100026.17;124844;1099;102920;-79
2022/04/05 06:50:12;;;;;;;24.03;13.10;;;;;;;6.70;54.44;100027.39;123825;1099;104379;-81
2022/04/05 06:52:46;;;;;;;25.55;12.50;;;;;;;6.78;54.56;100024.30;124473;1098;104159;-79
2022/04/05 06:55:20;;;;;;;24.30;12.30;;;;;;;6.91;54.76;100022.23;123426;1099;104547;-79
2022/04/05 06:57:58;;;;;;;;;;;;;;;7.06;53.58;100015.05;123374;1102;104278;-78
2022/04/05 07:00:30;;;;;;;24.50;11.40;;;;;;;7.20;54.46;100018.23;124054;1099;104245;-78
2022/04/05 07:03:03;;;;;;;24.97;12.57;;;;;;;7.37;53.96;100006.77;123896;1099;104338;-79
2022/04/05 07:05:39;;;;;;;22.83;11.73;;;;;;;7.59;54.38;100007.63;124438;1099;118511;-78
2022/04/05 07:08:12;;;;;;;23.62;11.50;;;;;;;7.77;53.82;100007.44;124055;1099;104265;-77
2022/04/05 07:10:45;;;;;;;21.37;10.17;;;;;;;7.92;53.22;100002.81;124420;1099;104201;-78
2022/04/05 07:13:17;;;;;;;19.10;10.10;;;;;;;8.05;53.31;100003.28;124182;1099;104342;-79
2022/04/05 07:15:51;;;;;;;21.65;9.70;;;;;;;8.18;52.69;99991.56;124261;1099;104217;-78
2022/04/05 07:18:27;;;;;;;18.25;8.65;;;;;;;8.27;51.08;99997.12;124070;1099;104230;-77
2022/04/05 07:20:59;;;;;;;18.17;8.70;;;;;;;8.40;50.80;99986.30;125011;1099;104304;-80
2022/04/05 07:23:46;;;;;;;17.63;7.97;;;;;;;8.52;50.41;99967.55;125004;1099;104226;-81
2022/04/05 07:26:28;;;;;;;18.23;7.80;;;;;;;8.75;49.51;99967.48;125621;1099;110334;-78
2022/04/05 07:29:06;;;;;;;14.97;7.77;;;;;;;8.92;49.59;99973.30;125039;1098;104379;-79
2022/04/05 07:31:50;;;;;;;14.70;7.43;;;;;;;9.00;48.41;99969.20;124227;1099;104383;-78
2022/04/05 07:34:28;;;;;;;18.33;6.97;;;;;;;9.08;49.03;99961.60;123943;1099;104304;-79
2022/04/05 07:37:10;;;;;;;15.17;6.63;;;;;;;9.14;47.99;99956.57;124709;1099;104377;-78
2022/04/05 07:39:49;;;;;;;12.80;6.67;;;;;;;9.26;48.04;99951.73;124821;1099;104376;-77
2022/04/05 07:42:40;;;;;;;11.73;6.40;;;;;;;9.40;48.45;99948.68;124801;1099;104760;-78
2022/04/05 07:45:26;;;;;;;14.27;6.03;;;;;;;9.51;47.83;99931.56;124216;1099;104300;-77
2022/04/05 07:48:03;;;;;;;13.65;5.95;;;;;;;9.65;47.32;99932.87;123674;1099;104408;-78
2022/04/05 07:50:35;;;;;;;15.37;6.67;;;;;;;9.80;47.10;99937.69;124053;1099;104332;-79
2022/04/05 07:53:07;;;;;;;11.83;5.93;;;;;;;9.90;46.90;99933.59;125311;1099;104236;-78
2022/04/05 07:55:40;;;;;;;12.43;5.90;;;;;;;9.93;45.81;99930.19;124646;1099;105380;-77
2022/04/05 07:58:14;;;;;;;13.30;6.67;;;;;;;10.02;45.50;99933.05;124430;1099;104695;-79
2022/04/05 08:00:52;;;;;;;14.73;6.07;;;;;;;10.10;43.41;99922.78;124396;1099;104300;-79
2022/04/05 08:03:24;;;;;;;12.90;6.37;;;;;;;10.17;45.61;99912.52;124350;1099;104226;-78
2022/04/05 08:06:21;;;;;;;;;;;;;;;10.25;43.42;99910.11;124749;1099;104221;-79
2022/04/05 08:09:18;;;;;;;11.83;5.13;;;;;;;10.35;44.30;99913.92;125656;1099;104236;-79
2022/04/05 08:12:15;;;;;;;11.53;5.70;;;;;;;10.42;43.58;99916.75;124804;1099;104273;-78
2022/04/05 08:14:55;;;;;;;13.28;5.78;;;;;;;10.51;43.75;99904.72;124494;1099;104338;-79
2022/04/05 08:17:32;;;;;;;14.20;5.63;;;;;;;10.60;43.91;99904.97;125136;1099;104276;-79
2022/04/05 08:20:09;;;;;;;12.40;5.70;;;;;;;10.75;42.27;99912.33;124058;1099;104271;-79
2022/04/05 08:22:52;;;;;;;9.67;5.40;;;;;;;10.88;43.28;99901.30;124104;1099;104249;-81
2022/04/05 08:25:25;;;;;;;10.53;5.67;;;;;;;10.91;40.88;99892.63;123617;1099;104319;-78
2022/04/05 08:28:15;;;;;;;13.23;5.73;;;;;;;11.07;41.00;99900.00;123730;1098;104447;-79
2022/04/05 08:31:03;;;;;;;10.77;5.10;;;;;;;11.23;41.76;99903.88;123830;1102;104432;-80
2022/04/05 08:33:42;;;;;;;11.37;5.50;;;;;;;11.30;41.00;99883.91;123911;1102;104329;-78
2022/04/05 08:36:48;;;;;;;11.63;5.60;;;;;;;11.36;40.49;99875.27;123810;1099;104430;-79
2022/04/05 08:39:24;;;;;;;11.13;5.53;;;;;;;11.44;41.00;99871.09;124037;1099;104335;-78
2022/04/05 08:42:04;;;;;;;10.67;5.43;;;;;;;11.45;40.06;99865.88;123532;1100;104456;-79
2022/04/05 08:44:44;;;;;;;12.87;6.97;;;;;;;11.52;39.75;99872.14;123719;1099;104466;-80
2022/04/05 08:47:24;;;;;;;16.10;6.37;;;;;;;11.62;40.21;99866.20;123516;1099;104290;-79
2022/04/05 08:50:06;;;;;;;13.97;6.03;;;;;;;11.61;39.70;99859.20;123888;1102;104402;-79
2022/04/05 08:52:43;;;;;;;12.03;6.00;;;;;;;11.72;39.64;99856.80;123598;1099;104316;-78
2022/04/05 08:55:18;;;;;;;12.80;5.57;;;;;;;11.78;39.76;99841.16;123518;1102;104300;-78
2022/04/05 09:01:03;;;;;;;14.90;6.30;;;;;;;11.95;39.40;99838.90;125147;1099;109933;-79
2022/04/05 09:03:44;;;;;;;12.23;6.07;;;;;;;12.00;39.15;99837.23;125660;1099;104251;-80
2022/04/05 09:06:36;;;;;;;14.67;6.57;;;;;;;12.00;38.76;99820.58;124920;1099;104370;-80
2022/04/05 09:09:28;;;;;;;13.87;7.00;;;;;;;11.98;39.37;99827.53;126768;1099;102101;-81
2022/04/05 09:12:34;;;;;;;10.60;5.73;;;;;;;12.01;37.98;99823.23;125553;1099;104249;-79
2022/04/05 09:15:30;;;;;;;14.57;6.10;;;;;;;12.21;38.16;99815.69;125215;1099;104274;-79
2022/04/05 09:18:10;;;;;;;14.50;6.70;;;;;;;12.28;37.67;99823.69;125062;1099;104188;-78
2022/04/05 09:20:55;;;;;;;14.73;6.70;;;;;;;12.32;37.70;99830.79;125489;1099;104392;-80
2022/04/05 09:23:29;;;;;;;11.80;6.03;;;;;;;12.40;37.58;99834.44;124077;1099;104280;-77
2022/04/05 09:26:03;;;;;;;14.60;6.07;;;;;;;12.37;36.67;99831.75;123813;1099;104332;-78
2022/04/05 09:28:37;;;;;;;;;;;;;;;12.45;35.93;99824.91;123875;1099;104217;-78
2022/04/05 09:31:14;;;;;;;10.83;6.00;;;;;;;12.49;37.02;99813.55;124444;1099;104291;-78
2022/04/05 09:34:08;;;;;;;11.48;5.40;;;;;;;12.50;36.30;99812.70;123892;1099;104303;-79
2022/04/05 09:36:48;;;;;;;13.67;6.27;;;;;;;12.53;36.78;99812.75;124430;1099;104360;-76
2022/04/05 09:39:29;;;;;;;14.53;6.50;;;;;;;12.58;36.37;99807.56;124130;1100;104258;-78
2022/04/05 09:42:11;;;;;;;10.70;5.60;;;;;;;12.63;35.98;99799.74;124662;1098;104293;-78
2022/04/05 09:45:06;;;;;;;11.75;5.60;;;;;;;12.68;36.06;99790.16;124057;1099;104391;-78
2022/04/05 09:48:23;;;;;;;10.70;5.63;;;;;;;12.68;36.15;99779.63;125021;1099;104156;-78
2022/04/05 09:51:21;;;;;;;13.43;6.30;;;;;;;12.66;35.84;99774.34;124066;1102;104166;-76
2022/04/05 09:54:08;;;;;;;13.53;6.60;;;;;;;12.67;35.46;99764.69;123993;1102;104421;-77
2022/04/05 09:56:44;;;;;;;12.70;6.73;;;;;;;12.63;35.94;99755.88;124247;1102;104307;-75
2022/04/05 09:59:18;;;;;;;16.20;6.83;;;;;;;12.75;35.00;99755.19;123859;1102;104238;-76
2022/04/05 10:01:56;;;;;;;;;;;;;;;12.87;32.93;99746.56;123931;1102;118589;-76
2022/04/05 10:04:39;;;;;;;15.63;6.87;;;;;;;12.93;35.37;99750.19;124081;1102;104226;-77
2022/04/05 10:07:13;;;;;;;14.03;6.73;;;;;;;12.94;34.89;99745.80;123915;1102;104430;-76
2022/04/05 10:09:47;;;;;;;13.60;6.60;;;;;;;12.92;35.14;99750.17;123936;1101;104349;-76
2022/04/05 10:12:20;;;;;;;13.23;6.07;;;;;;;12.93;34.37;99749.28;124000;1102;104252;-74
2022/04/05 10:14:52;;;;;;;13.23;6.20;;;;;;;13.03;34.56;99734.52;123934;1102;104245;-75
2022/04/05 10:17:27;;;;;;;13.20;6.03;;;;;;;13.09;34.45;99734.61;124049;1102;104431;-75
2022/04/05 10:20:02;;;;;;;10.70;5.27;;;;;;;13.16;34.10;99736.44;124445;1102;104447;-76
2022/04/05 10:22:35;;;;;;;11.43;6.20;;;;;;;13.21;34.58;99736.49;124522;1098;109514;-77
2022/04/05 10:29:30;;;;;;;10.23;5.50;;;;;;;13.33;34.46;99719.97;126309;1099;103161;-77
2022/04/05 10:32:07;;;;;;;10.07;4.93;;;;;;;13.40;32.80;99716.55;125476;1099;102111;-76
2022/04/05 10:35:12;;;;;;;12.40;5.80;;;;;;;13.43;33.84;99706.05;124492;1099;102601;-77
2022/04/05 10:37:51;;;;;;;10.47;5.73;;;;;;;13.47;32.95;99700.83;124720;1099;104325;-78
2022/04/05 10:40:25;;;;;;;11.63;5.50;;;;;;;13.57;33.32;99712.37;125284;1099;101782;-78
2022/04/05 10:42:59;;;;;;;12.13;5.97;;;;;;;13.68;32.90;99714.23;125032;1102;104238;-78
2022/04/05 10:45:43;;;;;;;14.63;6.20;;;;;;;13.72;32.04;99706.36;124021;1099;107074;-78
2022/04/05 10:48:27;;;;;;;13.47;6.30;;;;;;;13.79;33.75;99707.30;124457;1099;104189;-78
2022/04/05 10:51:30;;;;;;;12.37;6.23;;;;;;;13.78;33.71;99700.28;124315;1099;104415;-77
2022/04/05 10:54:25;;;;;;;13.40;6.33;;;;;;;13.82;33.45;99702.06;124410;1099;104191;-77
2022/04/05 10:57:40;;;;;;;14.20;6.23;;;;;;;13.70;33.07;99702.84;124583;1099;104628;-78
2022/04/05 11:00:22;;;;;;;17.00;5.73;;;;;;;13.69;33.38;99700.19;123890;1099;104431;-76
2022/04/05 11:03:11;;;;;;;12.67;5.33;;;;;;;13.63;33.00;99691.36;124288;1099;104261;-77
2022/04/05 11:06:04;;;;;;;10.50;5.30;;;;;;;13.62;31.80;99691.34;125349;1099;109003;-79
2022/04/05 11:09:44;;;;;;;13.27;5.43;;;;;;;13.55;32.23;99682.46;125117;1099;102733;-78
2022/04/05 11:12:48;;;;;;;13.50;5.90;;;;;;;13.59;31.77;99679.00;123960;1099;104332;-76
2022/04/05 11:15:25;;;;;;;10.38;5.37;;;;;;;13.70;32.23;99673.84;123363;1099;104396;-76
2022/04/05 11:18:08;;;;;;;11.20;5.10;;;;;;;13.77;30.93;99683.55;123634;1099;104386;-77
2022/04/05 11:20:45;;;;;;;7.03;4.47;;;;;;;13.73;31.58;99672.97;123600;1099;104264;-77
2022/04/05 11:23:40;;;;;;;10.50;4.67;;;;;;;13.75;31.91;99671.25;123747;1099;104251;-79
2022/04/05 11:26:42;;;;;;;9.15;4.72;;;;;;;13.82;31.42;99649.32;123840;1099;104336;-80
2022/04/05 11:29:24;;;;;;;13.40;5.40;;;;;;;13.93;31.50;99645.05;123708;1099;104884;-78
2022/04/05 11:32:12;;;;;;;12.80;5.83;;;;;;;13.97;30.10;99652.09;124089;1099;104326;-80
2022/04/05 11:34:48;;;;;;;10.27;5.40;;;;;;;14.06;30.92;99653.06;124343;1099;104441;-78
2022/04/05 11:37:36;;;;;;;11.87;5.40;;;;;;;14.05;30.84;99640.73;124079;1099;104201;-80
2022/04/05 11:40:12;;;;;;;11.33;4.80;;;;;;;14.03;30.93;99646.87;125112;1099;104309;-78
2022/04/05 11:43:08;;;;;;;12.37;4.77;;;;;;;14.10;31.22;99633.73;125415;1099;104332;-80
2022/04/05 11:45:45;;;;;;;13.43;5.07;;;;;;;14.16;31.54;99621.48;124139;1101;104386;-77
2022/04/05 11:48:23;;;;;;;7.80;4.70;;;;;;;14.22;29.77;99623.27;123761;1099;104235;-76
2022/04/05 11:50:57;;;;;;;7.85;4.50;;;;;;;14.25;29.94;99615.37;123549;1102;104508;-76
2022/04/05 11:53:48;;;;;;;9.68;4.80;;;;;;;14.29;30.19;99610.98;123300;1099;104372;-76
2022/04/05 11:56:27;;;;;;;10.63;4.10;;;;;;;14.30;29.98;99608.36;124251;1102;104421;-78
2022/04/05 11:59:38;;;;;;;11.20;4.50;;;;;;;14.38;29.75;99609.31;124333;1100;102151;-78
2022/04/05 12:02:12;;;;;;;9.77;4.53;;;;;;;14.44;30.14;99610.20;123646;1102;104504;-77
2022/04/05 12:04:55;;;;;;;7.92;4.10;;;;;;;14.47;29.51;99586.47;124413;1102;104842;-79
2022/04/05 12:07:36;;;;;;;9.73;4.03;;;;;;;14.43;28.79;99590.86;124190;1101;118299;-79
2022/04/05 12:10:09;;;;;;;14.23;5.13;;;;;;;14.43;29.33;99600.52;123655;1101;104306;-79
2022/04/05 12:12:47;;;;;;;9.33;4.73;;;;;;;14.41;29.92;99592.59;124923;1099;104242;-79
2022/04/05 12:15:25;;;;;;;8.00;4.47;;;;;;;14.33;28.50;99592.55;124606;1099;104194;-79
2022/04/05 12:18:20;;;;;;;9.80;4.70;;;;;;;14.30;29.11;99581.09;123936;1099;104383;-76
2022/04/05 12:21:01;;;;;;;7.43;4.17;;;;;;;14.31;29.09;99580.23;124059;1099;104245;-78
2022/04/05 12:23:38;;;;;;;8.47;4.60;;;;;;;14.34;29.50;99575.84;124042;1098;104402;-78
2022/04/05 12:26:16;;;;;;;8.00;4.57;;;;;;;14.36;29.12;99574.09;123896;1098;104274;-78
2022/04/05 12:28:50;;;;;;;10.27;4.40;;;;;;;14.31;28.06;99572.31;124780;1099;104250;-78
2022/04/05 12:31:26;;;;;;;9.20;4.60;;;;;;;14.32;29.52;99579.34;123938;1099;104325;-76
2022/04/05 12:34:05;;;;;;;9.57;4.10;;;;;;;14.26;28.41;99561.73;124113;1099;104274;-78
2022/04/05 12:36:44;;;;;;;8.53;4.40;;;;;;;14.28;28.55;99567.02;124744;1098;104242;-79
2022/04/05 12:39:24;;;;;;;8.70;4.30;;;;;;;14.29;28.70;99556.48;125023;1099;104197;-79
2022/04/05 12:42:02;;;;;;;7.57;4.33;;;;;;;14.27;28.60;99546.77;124234;1099;104495;-80
2022/04/05 12:44:39;;;;;;;6.67;4.10;;;;;;;14.18;28.70;99556.41;123835;1099;104236;-80
2022/04/05 12:47:16;;;;;;;9.83;4.80;;;;;;;14.20;28.40;99553.78;124438;1099;104427;-78
2022/04/05 12:49:50;;;;;;;8.50;4.10;;;;;;;14.19;28.30;99559.92;124214;1098;108183;-80
2022/04/05 12:52:32;;;;;;;9.87;4.60;;;;;;;14.24;29.03;99552.03;124645;1099;104185;-79
2022/04/05 12:55:14;;;;;;;11.27;4.97;;;;;;;14.24;28.13;99547.62;124232;1099;104312;-78
2022/04/05 12:58:03;;;;;;;11.75;4.90;;;;;;;14.16;28.07;99544.08;124672;1099;104293;-80
2022/04/05 13:00:46;;;;;;;12.03;4.70;;;;;;;14.15;28.33;99547.61;124854;1098;104251;-77